Time;durP1;ratioP1;P1;durP2;ratioP2;P2;SDS_P1;SDS_P2;PMS_P1;PMS_P2;Temp;Humidity;BMP_temperature;BMP_pressure;BME280_temperature;BME280_humidity;BME280_pressure;Samples;Min_cycle;Max_cycle;Signal;HPM_P1;HPM_P2
2024/01/24 00:00:05;;;;;;;20.15;8.15;;;0.80;99.90;;;;;;5073595;28;20028;-66
2024/01/24 00:02:31;;;;;;;14.55;7.18;;;0.80;99.90;;;;;;5055592;28;20116;-65
2024/01/24 00:04:56;;;;;;;16.60;6.63;;;0.80;99.90;;;;;;5074072;28;20048;-64
2024/01/24 00:07:22;;;;;;;17.55;7.05;;;0.80;99.90;;;;;;5074637;28;20035;-64
2024/01/24 00:09:47;;;;;;;16.42;7.65;;;0.80;99.90;;;;;;5055973;28;20043;-65
2024/01/24 00:12:13;;;;;;;18.55;6.90;;;0.80;99.90;;;;;;5073340;28;20024;-64
2024/01/24 00:14:39;;;;;;;17.67;7.50;;;0.90;99.90;;;;;;5073546;28;20029;-68
2024/01/24 00:17:05;;;;;;;15.45;6.38;;;0.90;99.90;;;;;;5073647;28;20444;-65
2024/01/24 00:19:31;;;;;;;20.25;7.80;;;1.00;99.90;;;;;;5055488;28;20032;-65
2024/01/24 00:21:56;;;;;;;19.73;7.85;;;1.00;99.90;;;;;;5055559;28;20090;-65
2024/01/24 00:24:22;;;;;;;22.50;7.50;;;1.10;99.90;;;;;;5073498;28;20048;-65
2024/01/24 00:26:48;;;;;;;12.52;6.95;;;1.10;99.90;;;;;;5074281;28;20100;-64
2024/01/24 00:29:13;;;;;;;14.60;7.30;;;1.10;99.90;;;;;;5077613;28;20120;-64
2024/01/24 00:31:39;;;;;;;14.68;6.30;;;1.10;99.90;;;;;;5077318;28;20021;-64
2024/01/24 00:34:05;;;;;;;18.90;6.65;;;1.10;99.90;;;;;;5077591;28;20488;-65
2024/01/24 00:36:30;;;;;;;15.85;6.05;;;1.10;99.90;;;;;;5076882;28;20032;-65
2024/01/24 00:38:56;;;;;;;15.65;6.38;;;1.10;99.90;;;;;;5077080;28;20116;-64
2024/01/24 00:41:22;;;;;;;16.45;6.32;;;1.20;99.90;;;;;;5059211;28;20064;-65
2024/01/24 00:43:47;;;;;;;13.45;6.03;;;1.10;99.90;;;;;;5077350;28;20039;-65
2024/01/24 00:46:13;;;;;;;13.88;6.30;;;1.20;99.90;;;;;;5076744;28;20443;-65
2024/01/24 00:48:39;;;;;;;15.13;6.32;;;1.20;99.90;;;;;;5059091;28;20029;-64
2024/01/24 00:51:04;;;;;;;14.02;5.95;;;1.10;99.90;;;;;;5077011;28;20381;-65
2024/01/24 00:53:34;;;;;;;9.95;5.75;;;1.10;99.90;;;;;;5058777;28;20422;-65
2024/01/24 00:55:59;;;;;;;15.02;6.07;;;1.20;99.90;;;;;;5076903;28;20094;-65
2024/01/24 00:58:25;;;;;;;12.70;6.22;;;1.20;99.90;;;;;;5058927;28;20457;-65
2024/01/24 01:00:51;;;;;;;15.30;5.80;;;1.20;99.90;;;;;;5076779;28;20459;-65
2024/01/24 01:03:16;;;;;;;15.00;5.80;;;1.10;99.90;;;;;;5058764;28;20111;-65
2024/01/24 01:05:42;;;;;;;18.15;6.45;;;1.10;99.90;;;;;;5076661;28;20045;-65
2024/01/24 01:08:08;;;;;;;15.93;6.80;;;1.20;99.90;;;;;;5058651;28;20115;-65
2024/01/24 01:10:34;;;;;;;19.55;6.85;;;1.10;99.90;;;;;;5076595;28;20052;-65
2024/01/24 01:12:59;;;;;;;15.88;5.82;;;1.10;99.90;;;;;;5058312;28;20021;-65
2024/01/24 01:15:25;;;;;;;12.90;6.40;;;1.20;99.90;;;;;;5058531;28;20032;-65
2024/01/24 01:17:51;;;;;;;12.57;5.93;;;1.20;99.90;;;;;;5058192;28;20161;-65
2024/01/24 01:20:19;;;;;;;15.95;6.40;;;1.30;99.90;;;;;;5076334;28;20036;-65
2024/01/24 01:22:47;;;;;;;18.02;6.90;;;1.30;99.90;;;;;;5076368;28;20028;-65
2024/01/24 01:25:13;;;;;;;13.13;5.15;;;1.30;99.90;;;;;;5076040;28;20025;-65
2024/01/24 01:27:40;;;;;;;10.85;4.97;;;1.30;99.90;;;;;;5058361;28;20032;-64
2024/01/24 01:30:06;;;;;;;13.85;5.82;;;1.30;99.90;;;;;;5076100;28;20465;-65
2024/01/24 01:32:32;;;;;;;17.85;6.25;;;1.30;99.90;;;;;;5076346;28;20021;-64
2024/01/24 01:34:59;;;;;;;13.73;6.75;;;1.30;99.90;;;;;;5075945;28;20028;-64
2024/01/24 01:37:25;;;;;;;16.90;7.20;;;1.30;99.90;;;;;;5057663;28;20029;-65
2024/01/24 01:39:51;;;;;;;17.95;7.43;;;1.30;99.90;;;;;;5075998;28;20082;-64
2024/01/24 01:42:17;;;;;;;12.73;7.07;;;1.30;99.90;;;;;;5075727;28;20491;-65
2024/01/24 01:44:46;;;;;;;18.10;7.10;;;1.30;99.90;;;;;;5075932;28;20028;-65
2024/01/24 01:47:13;;;;;;;18.00;6.35;;;1.30;99.90;;;;;;5058242;28;20036;-64
2024/01/24 01:49:40;;;;;;;15.20;6.15;;;1.30;99.90;;;;;;5076088;28;20055;-64
2024/01/24 01:52:06;;;;;;;16.00;6.35;;;1.40;99.90;;;;;;5076326;28;20452;-65
2024/01/24 01:54:32;;;;;;;18.15;6.40;;;1.40;99.90;;;;;;5075912;28;20501;-65
2024/01/24 01:56:58;;;;;;;15.35;6.85;;;1.40;99.90;;;;;;5095994;28;20070;-65
2024/01/24 01:59:25;;;;;;;14.10;6.50;;;1.50;99.90;;;;;;5095625;28;20062;-64
2024/01/24 02:01:54;;;;;;;21.67;6.30;;;1.50;99.90;;;;;;5094642;28;20478;-64
2024/01/24 02:04:21;;;;;;;13.50;6.00;;;1.50;99.90;;;;;;5094554;28;20024;-64
2024/01/24 02:06:47;;;;;;;15.40;6.47;;;1.50;99.90;;;;;;5096089;28;20081;-64
2024/01/24 02:09:12;;;;;;;13.65;6.40;;;1.50;99.90;;;;;;5094163;28;20032;-64
2024/01/24 02:11:40;;;;;;;11.55;5.70;;;1.60;99.90;;;;;;5095689;28;20039;-64
2024/01/24 02:14:06;;;;;;;14.15;5.82;;;1.60;99.90;;;;;;5095973;28;20026;-65
2024/01/24 02:16:32;;;;;;;19.60;5.63;;;1.60;99.90;;;;;;5094026;28;20023;-64
2024/01/24 02:18:57;;;;;;;15.05;5.38;;;1.60;99.90;;;;;;5095708;28;20086;-64
2024/01/24 02:21:23;;;;;;;13.73;5.50;;;1.60;99.90;;;;;;5095497;28;20028;-64
2024/01/24 02:23:49;;;;;;;12.00;5.35;;;1.60;99.90;;;;;;5095840;28;20058;-64
2024/01/24 02:26:15;;;;;;;18.88;5.68;;;1.60;99.90;;;;;;5095342;28;20035;-64
2024/01/24 02:28:41;;;;;;;13.13;5.75;;;1.60;99.90;;;;;;5095408;28;20027;-64
2024/01/24 02:31:06;;;;;;;13.57;6.22;;;1.70;99.90;;;;;;5095033;28;20456;-64
2024/01/24 02:33:32;;;;;;;14.48;5.93;;;1.60;99.90;;;;;;5094995;28;20035;-64
2024/01/24 02:35:58;;;;;;;8.95;5.47;;;1.70;99.90;;;;;;5095211;28;20028;-64
2024/01/24 02:38:24;;;;;;;14.18;4.93;;;1.70;99.90;;;;;;5094856;28;20035;-64
2024/01/24 02:40:49;;;;;;;11.77;6.35;;;1.70;99.90;;;;;;5095096;28;20125;-64
2024/01/24 02:43:15;;;;;;;12.55;4.97;;;1.70;99.90;;;;;;5093833;28;20456;-64
2024/01/24 02:45:41;;;;;;;10.80;5.13;;;1.70;99.90;;;;;;5093748;28;20032;-64
2024/01/24 02:48:06;;;;;;;13.93;6.65;;;1.70;99.90;;;;;;5094695;28;20020;-65
2024/01/24 02:50:33;;;;;;;12.10;5.43;;;1.70;99.90;;;;;;5094730;28;20024;-64
2024/01/24 02:52:59;;;;;;;8.60;4.75;;;1.70;99.90;;;;;;5095128;28;20032;-65
2024/01/24 02:55:24;;;;;;;15.77;5.55;;;1.80;99.90;;;;;;5093552;28;20405;-64
2024/01/24 02:57:50;;;;;;;16.70;5.60;;;1.80;99.90;;;;;;5094776;28;20028;-63
2024/01/24 03:00:16;;;;;;;11.90;4.90;;;1.80;99.90;;;;;;5094666;28;20045;-64
2024/01/24 03:02:42;;;;;;;9.75;5.13;;;1.80;99.90;;;;;;5095155;28;20456;-65
2024/01/24 03:05:11;;;;;;;11.45;4.90;;;1.80;99.90;;;;;;5093350;28;20032;-65
2024/01/24 03:07:37;;;;;;;13.45;6.15;;;1.80;99.90;;;;;;5094632;28;20028;-65
2024/01/24 03:10:02;;;;;;;11.43;5.35;;;1.80;99.90;;;;;;5094586;28;20501;-64
2024/01/24 03:12:28;;;;;;;12.45;6.40;;;1.80;99.90;;;;;;5093246;28;20032;-65
2024/01/24 03:14:54;;;;;;;15.48;6.07;;;1.80;99.90;;;;;;5093777;28;20060;-65
2024/01/24 03:17:19;;;;;;;10.63;5.35;;;1.80;99.90;;;;;;5094453;28;20020;-65
2024/01/24 03:19:45;;;;;;;14.52;5.80;;;1.80;99.90;;;;;;5094439;28;20028;-65
2024/01/24 03:22:11;;;;;;;16.90;6.88;;;1.80;99.90;;;;;;5094421;28;20475;-65
2024/01/24 03:24:37;;;;;;;13.93;5.65;;;1.80;99.90;;;;;;5092750;28;20028;-65
2024/01/24 03:27:02;;;;;;;12.88;5.57;;;1.80;99.90;;;;;;5094133;28;20020;-65
2024/01/24 03:29:28;;;;;;;11.65;5.25;;;1.90;99.90;;;;;;5094528;28;20042;-65
2024/01/24 03:31:54;;;;;;;11.40;5.45;;;1.80;99.90;;;;;;5094409;28;20027;-65
2024/01/24 03:34:20;;;;;;;12.30;6.28;;;1.90;99.90;;;;;;5093949;28;20031;-65
2024/01/24 03:36:45;;;;;;;12.13;5.63;;;1.80;99.90;;;;;;5092872;28;20024;-65
2024/01/24 03:39:11;;;;;;;11.40;5.50;;;1.80;99.90;;;;;;5094079;28;20032;-65
2024/01/24 03:41:37;;;;;;;13.68;5.20;;;1.90;99.90;;;;;;5094111;28;20028;-65
2024/01/24 03:44:04;;;;;;;17.98;5.97;;;1.90;99.90;;;;;;5094125;28;20035;-65
2024/01/24 03:46:29;;;;;;;9.82;5.13;;;1.90;99.90;;;;;;5092806;28;20375;-65
2024/01/24 03:48:55;;;;;;;19.45;7.18;;;1.90;99.90;;;;;;5094110;28;20028;-65
2024/01/24 03:51:21;;;;;;;17.88;6.30;;;2.00;99.90;;;;;;5093728;28;20489;-65
2024/01/24 03:53:46;;;;;;;15.75;7.63;;;1.90;99.90;;;;;;5089391;28;20059;-65
2024/01/24 03:56:12;;;;;;;16.40;6.53;;;2.00;99.90;;;;;;5074453;28;20025;-65
2024/01/24 03:58:38;;;;;;;17.20;6.80;;;2.00;99.90;;;;;;5073567;28;20036;-65
2024/01/24 04:01:05;;;;;;;12.50;6.22;;;2.00;99.90;;;;;;5076063;28;20032;-65
2024/01/24 04:03:30;;;;;;;17.25;7.72;;;2.00;99.90;;;;;;5080320;28;20024;-65
2024/01/24 04:05:56;;;;;;;15.95;6.18;;;2.00;99.90;;;;;;5080278;28;20381;-65
2024/01/24 04:08:22;;;;;;;15.65;6.20;;;2.00;99.90;;;;;;5080315;28;20020;-65
2024/01/24 04:10:47;;;;;;;19.77;6.22;;;2.00;99.90;;;;;;5080552;28;20031;-65
2024/01/24 04:13:14;;;;;;;22.58;7.15;;;2.00;99.90;;;;;;5062203;28;20482;-65
2024/01/24 04:15:40;;;;;;;19.45;6.53;;;2.00;99.90;;;;;;5062202;28;20059;-65
2024/01/24 04:18:05;;;;;;;18.45;6.13;;;2.10;99.90;;;;;;5062587;28;20052;-65
2024/01/24 04:20:31;;;;;;;54.17;9.02;;;2.10;99.90;;;;;;5079795;28;20388;-65
2024/01/24 04:22:58;;;;;;;25.00;6.63;;;2.10;99.90;;;;;;5080230;28;20029;-64
2024/01/24 04:25:23;;;;;;;16.55;6.10;;;2.20;99.90;;;;;;5080155;28;20349;-65
2024/01/24 04:27:49;;;;;;;19.63;6.40;;;2.20;99.90;;;;;;5080312;28;20020;-65
2024/01/24 04:30:15;;;;;;;28.02;7.10;;;2.20;99.90;;;;;;5062096;28;20078;-65
2024/01/24 04:32:41;;;;;;;26.55;8.80;;;2.20;99.90;;;;;;5080060;28;20017;-65
2024/01/24 04:35:07;;;;;;;19.58;7.50;;;2.20;99.90;;;;;;5079765;28;20032;-65
2024/01/24 04:37:32;;;;;;;13.98;6.47;;;2.20;99.90;;;;;;5079801;28;20016;-65
2024/01/24 04:39:58;;;;;;;15.15;6.22;;;2.20;99.90;;;;;;5062009;28;20127;-66
2024/01/24 04:42:24;;;;;;;12.27;5.70;;;2.20;99.90;;;;;;5080004;28;20054;-65
2024/01/24 04:44:50;;;;;;;22.33;7.07;;;2.30;99.90;;;;;;5079956;28;20029;-64
2024/01/24 04:47:16;;;;;;;23.92;7.40;;;2.30;99.90;;;;;;5079955;28;20027;-65
2024/01/24 04:49:42;;;;;;;25.50;8.05;;;2.30;99.90;;;;;;5061967;28;20031;-65
2024/01/24 04:52:08;;;;;;;22.13;8.07;;;2.30;99.90;;;;;;5079899;28;20031;-65
2024/01/24 04:54:36;;;;;;;17.58;8.00;;;2.30;99.90;;;;;;5079490;28;20041;-65
2024/01/24 04:57:03;;;;;;;13.52;5.93;;;2.30;99.90;;;;;;5080129;28;20030;-65
2024/01/24 04:59:30;;;;;;;16.60;5.75;;;2.40;99.90;;;;;;5079476;28;20381;-65
2024/01/24 05:01:55;;;;;;;15.27;5.90;;;2.40;99.90;;;;;;5079757;28;20094;-64
2024/01/24 05:04:21;;;;;;;15.35;5.65;;;2.50;99.90;;;;;;5079735;28;20029;-65
2024/01/24 05:06:47;;;;;;;12.38;6.28;;;2.60;99.90;;;;;;5080032;28;20453;-65
2024/01/24 05:09:14;;;;;;;11.60;6.20;;;2.60;99.90;;;;;;5079421;28;20029;-65
2024/01/24 05:11:40;;;;;;;14.55;6.60;;;2.60;99.90;;;;;;5061659;28;20032;-65
2024/01/24 05:14:07;;;;;;;13.57;6.43;;;2.60;99.90;;;;;;5075813;28;20036;-65
2024/01/24 05:16:32;;;;;;;18.17;8.02;;;2.60;99.90;;;;;;5058527;28;20476;-65
2024/01/24 05:18:58;;;;;;;17.65;7.50;;;2.60;99.90;;;;;;5058415;28;20036;-66
2024/01/24 05:21:24;;;;;;;15.27;8.73;;;2.60;99.90;;;;;;5058471;28;20029;-67
2024/01/24 05:23:51;;;;;;;23.85;8.88;;;2.70;99.90;;;;;;5076358;28;20040;-66
2024/01/24 05:26:17;;;;;;;12.00;5.30;;;2.70;99.90;;;;;;5076143;28;20476;-65
2024/01/24 05:28:43;;;;;;;25.85;9.60;;;2.70;99.90;;;;;;5075983;28;20142;-65
2024/01/24 05:31:08;;;;;;;9.82;5.70;;;2.80;99.90;;;;;;5076571;28;20039;-65
2024/01/24 05:33:34;;;;;;;21.35;5.50;;;2.80;99.90;;;;;;5075998;28;20464;-65
2024/01/24 05:36:00;;;;;;;10.40;4.05;;;2.90;99.90;;;;;;5058247;28;20456;-65
2024/01/24 05:38:27;;;;;;;18.30;5.78;;;2.90;99.90;;;;;;5076084;28;20025;-64
2024/01/24 05:40:53;;;;;;;18.45;6.65;;;3.00;99.90;;;;;;5076489;28;20111;-65
2024/01/24 05:43:18;;;;;;;15.98;6.25;;;3.00;99.90;;;;;;5076048;28;20532;-64
2024/01/24 05:45:44;;;;;;;14.25;7.75;;;3.00;99.90;;;;;;5076199;28;20032;-64
2024/01/24 05:48:10;;;;;;;18.60;8.02;;;3.00;99.90;;;;;;5075926;28;20039;-64
2024/01/24 05:50:36;;;;;;;16.25;7.25;;;3.00;99.90;;;;;;5075931;28;20031;-64
2024/01/24 05:53:01;;;;;;;16.10;5.97;;;2.90;99.90;;;;;;5075588;28;20020;-64
2024/01/24 05:55:28;;;;;;;13.88;6.50;;;2.90;99.90;;;;;;5091237;28;20044;-65
2024/01/24 05:57:54;;;;;;;20.42;6.75;;;2.90;99.90;;;;;;5096314;28;20016;-65
2024/01/24 06:00:19;;;;;;;24.02;7.32;;;3.00;99.90;;;;;;5096323;28;20101;-64
2024/01/24 06:02:47;;;;;;;18.90;7.80;;;2.90;99.90;;;;;;5096051;28;20472;-65
2024/01/24 06:05:15;;;;;;;15.77;6.72;;;2.90;99.90;;;;;;5094478;28;20383;-65
2024/01/24 06:07:41;;;;;;;16.83;6.70;;;2.90;99.90;;;;;;5095985;28;20028;-65
2024/01/24 06:10:07;;;;;;;27.90;7.30;;;3.00;99.90;;;;;;5095417;28;20490;-65
2024/01/24 06:12:33;;;;;;;16.08;6.63;;;2.90;99.90;;;;;;5095434;28;20077;-66
2024/01/24 06:14:58;;;;;;;18.65;7.07;;;3.00;99.90;;;;;;5094366;28;20032;-65
2024/01/24 06:17:24;;;;;;;15.18;6.38;;;3.00;99.90;;;;;;5095639;28;20035;-64
2024/01/24 06:19:51;;;;;;;19.33;7.40;;;3.00;99.90;;;;;;5095547;28;20040;-66
2024/01/24 06:22:17;;;;;;;20.25;7.85;;;3.00;99.90;;;;;;5095516;28;20039;-65
2024/01/24 06:24:44;;;;;;;23.17;7.30;;;3.00;99.90;;;;;;5094841;28;20376;-65
2024/01/24 06:27:10;;;;;;;18.55;8.32;;;3.00;99.90;;;;;;5094113;28;20024;-65
2024/01/24 06:29:35;;;;;;;24.88;7.10;;;3.00;99.90;;;;;;5095402;28;20020;-65
2024/01/24 06:32:01;;;;;;;25.15;6.60;;;3.00;99.90;;;;;;5094249;28;20047;-65
2024/01/24 06:34:27;;;;;;;18.73;7.18;;;3.00;99.90;;;;;;5095248;28;20027;-65
2024/01/24 06:36:53;;;;;;;22.67;7.70;;;3.00;99.90;;;;;;5095754;28;20028;-65
2024/01/24 06:39:18;;;;;;;14.23;6.90;;;3.10;99.90;;;;;;5094849;28;20575;-65
2024/01/24 06:41:45;;;;;;;19.08;8.50;;;3.00;99.90;;;;;;5095385;28;20035;-66
2024/01/24 06:44:10;;;;;;;15.40;7.40;;;3.00;99.90;;;;;;5094762;28;20399;-65
2024/01/24 06:46:43;;;;;;;15.73;8.93;;;3.00;99.90;;;;;;5093750;28;20031;-64
2024/01/24 06:49:11;;;;;;;21.13;8.05;;;3.00;99.90;;;;;;5094963;28;20036;-65
2024/01/24 06:51:37;;;;;;;33.70;8.95;;;3.00;99.90;;;;;;5093616;28;20376;-64
2024/01/24 06:54:04;;;;;;;24.05;8.95;;;3.00;99.90;;;;;;5087810;28;20106;-65
2024/01/24 06:56:30;;;;;;;17.83;8.68;;;3.00;99.90;;;;;;5074518;28;20028;-65
2024/01/24 06:58:56;;;;;;;18.92;8.50;;;3.00;99.90;;;;;;5074156;28;20033;-65
2024/01/24 07:01:21;;;;;;;22.67;9.25;;;3.10;99.90;;;;;;5056272;28;20040;-65
2024/01/24 07:03:47;;;;;;;13.77;7.97;;;3.10;99.90;;;;;;5074465;28;20020;-65
2024/01/24 07:06:13;;;;;;;24.38;8.30;;;3.00;99.90;;;;;;5074383;28;20032;-65
2024/01/24 07:08:42;;;;;;;13.40;7.63;;;3.00;99.90;;;;;;5074227;28;20036;-65
2024/01/24 07:11:08;;;;;;;22.48;9.68;;;3.00;99.90;;;;;;5074359;28;20486;-65
2024/01/24 07:13:34;;;;;;;28.00;12.55;;;3.00;99.90;;;;;;5074554;28;20112;-65
2024/01/24 07:16:04;;;;;;;33.90;15.23;;;3.00;99.90;;;;;;5074194;28;20023;-65
2024/01/24 07:18:33;;;;;;;24.63;11.65;;;3.00;99.90;;;;;;5074332;28;20027;-65
2024/01/24 07:21:05;;;;;;;31.58;10.15;;;3.10;99.90;;;;;;5074261;28;20115;-65
2024/01/24 07:23:32;;;;;;;20.90;9.98;;;3.10;99.90;;;;;;5074457;28;20021;-64
2024/01/24 07:25:57;;;;;;;12.07;7.65;;;3.30;99.90;;;;;;5074132;28;20036;-65
2024/01/24 07:28:23;;;;;;;11.98;5.10;;;3.60;99.90;;;;;;5074105;28;20070;-65
2024/01/24 07:30:49;;;;;;;8.68;2.20;;;4.40;99.90;;;;;;5056472;28;20028;-65
2024/01/24 07:33:15;;;;;;;4.18;1.40;;;5.10;99.90;;;;;;5074186;28;20036;-65
2024/01/24 07:35:41;;;;;;;4.88;2.13;;;6.20;99.90;;;;;;5055540;28;20460;-65
2024/01/24 07:38:06;;;;;;;3.85;1.23;;;6.80;99.90;;;;;;5074263;28;20030;-63
2024/01/24 07:40:32;;;;;;;3.97;1.23;;;7.20;99.90;;;;;;5074104;28;20029;-65
2024/01/24 07:42:58;;;;;;;3.92;0.50;;;7.50;99.90;;;;;;5055959;28;20031;-65
2024/01/24 07:45:24;;;;;;;1.73;0.45;;;7.80;99.90;;;;;;5074211;28;20116;-65
2024/01/24 07:47:51;;;;;;;1.95;0.43;;;8.20;99.90;;;;;;5039898;28;20033;-64
2024/01/24 07:50:17;;;;;;;1.38;0.30;;;8.60;99.90;;;;;;5035898;28;20032;-65
2024/01/24 07:52:43;;;;;;;2.22;0.28;;;9.00;99.90;;;;;;5035880;28;20052;-65
2024/01/24 07:55:10;;;;;;;3.45;0.30;;;9.20;99.90;;;;;;5053345;28;20107;-65
2024/01/24 07:57:35;;;;;;;1.23;0.50;;;9.20;99.90;;;;;;5036115;28;20346;-65
2024/01/24 08:00:03;;;;;;;3.20;0.70;;;9.30;99.90;;;;;;5036160;28;20036;-65
2024/01/24 08:02:29;;;;;;;1.27;0.50;;;9.50;99.90;;;;;;5053932;28;20029;-65
2024/01/24 08:04:55;;;;;;;2.42;0.50;;;9.50;99.90;;;;;;5035770;28;20025;-65
2024/01/24 08:07:20;;;;;;;3.50;0.50;;;9.60;99.90;;;;;;5053552;28;20456;-66
2024/01/24 08:09:46;;;;;;;3.40;0.30;;;9.60;99.90;;;;;;5053602;28;20029;-65
2024/01/24 08:12:18;;;;;;;1.42;0.43;;;9.60;99.90;;;;;;5053361;28;20025;-65
2024/01/24 08:14:44;;;;;;;1.52;0.20;;;9.70;99.90;;;;;;5053741;28;20029;-65
2024/01/24 08:17:14;;;;;;;1.17;0.28;;;9.70;99.90;;;;;;5035360;28;20032;-65
2024/01/24 08:19:39;;;;;;;3.22;0.50;;;9.90;99.90;;;;;;5035557;28;20029;-65
2024/01/24 08:22:05;;;;;;;5.93;0.40;;;10.00;99.90;;;;;;5053481;28;20055;-65
2024/01/24 08:24:31;;;;;;;3.38;0.70;;;10.20;99.90;;;;;;5035554;28;20052;-65
2024/01/24 08:26:57;;;;;;;1.17;0.45;;;10.30;99.90;;;;;;5035551;28;20032;-65
2024/01/24 08:29:26;;;;;;;0.65;0.30;;;10.40;99.90;;;;;;5053367;28;20029;-65
2024/01/24 08:31:51;;;;;;;2.70;0.43;;;10.70;99.90;;;;;;5053388;28;20025;-65
2024/01/24 08:34:17;;;;;;;0.55;0.20;;;10.90;99.90;;;;;;5035468;28;20029;-65
2024/01/24 08:36:43;;;;;;;1.17;0.50;;;11.10;99.90;;;;;;5053343;28;20036;-65
2024/01/24 08:39:10;;;;;;;1.85;0.30;;;11.30;99.90;;;;;;5052906;28;20389;-65
2024/01/24 08:41:36;;;;;;;0.68;0.30;;;11.40;99.90;;;;;;5035404;28;20029;-65
2024/01/24 08:44:02;;;;;;;0.60;0.15;;;11.40;99.90;;;;;;5035151;28;20079;-65
2024/01/24 08:46:28;;;;;;;0.90;0.20;;;11.50;99.90;;;;;;5053185;28;20029;-65
2024/01/24 08:48:54;;;;;;;0.75;0.20;;;11.50;99.90;;;;;;5055669;28;20055;-65
2024/01/24 08:51:21;;;;;;;0.63;0.15;;;11.60;99.90;;;;;;5057003;28;20453;-65
2024/01/24 08:53:46;;;;;;;2.05;0.85;;;11.70;99.90;;;;;;5044086;28;20131;-65
2024/01/24 08:56:13;;;;;;;1.45;0.20;;;11.80;99.90;;;;;;5077123;28;20060;-65
2024/01/24 08:58:39;;;;;;;1.45;0.20;;;11.90;99.90;;;;;;5076768;28;20029;-65
2024/01/24 09:01:05;;;;;;;0.52;0.25;;;12.00;99.90;;;;;;5075266;28;20078;-65
2024/01/24 09:03:31;;;;;;;1.05;0.45;;;12.10;99.90;;;;;;5075262;28;20024;-65
2024/01/24 09:05:57;;;;;;;0.38;0.30;;;12.10;99.90;;;;;;5076729;28;20021;-65
2024/01/24 09:08:23;;;;;;;0.95;0.20;;;12.00;99.90;;;;;;5076725;28;20041;-65
2024/01/24 09:10:48;;;;;;;1.23;0.30;;;11.90;99.90;;;;;;5075354;28;20395;-65
2024/01/24 09:13:19;;;;;;;2.80;0.20;;;11.90;99.90;;;;;;5077013;28;20056;-64
2024/01/24 09:15:45;;;;;;;1.73;0.20;;;11.90;99.90;;;;;;5075486;28;20111;-65
2024/01/24 09:18:10;;;;;;;2.60;0.30;;;12.00;99.90;;;;;;5076559;28;20570;-64
2024/01/24 09:20:36;;;;;;;1.33;0.30;;;12.20;99.90;;;;;;5076217;28;20399;-64
2024/01/24 09:23:01;;;;;;;0.70;0.28;;;12.30;99.90;;;;;;5076527;28;20028;-65
2024/01/24 09:25:27;;;;;;;2.15;0.17;;;12.50;99.90;;;;;;5076282;28;20025;-65
2024/01/24 09:27:53;;;;;;;1.58;0.22;;;12.70;99.90;;;;;;5076413;28;20028;-66
2024/01/24 09:30:20;;;;;;;1.27;0.22;;;12.80;99.90;;;;;;5076296;28;20036;-65
2024/01/24 09:32:46;;;;;;;1.17;0.28;;;13.00;99.90;;;;;;5075318;28;20020;-65
2024/01/24 09:35:11;;;;;;;1.83;0.40;;;13.30;99.90;;;;;;5074922;28;20123;-65
2024/01/24 09:37:37;;;;;;;1.13;0.20;;;13.40;99.90;;;;;;5074948;28;20025;-65
2024/01/24 09:40:04;;;;;;;1.83;0.32;;;13.40;99.90;;;;;;5074789;28;20464;-65
2024/01/24 09:42:36;;;;;;;0.95;0.22;;;13.30;99.90;;;;;;5076112;28;20468;-65
2024/01/24 09:45:07;;;;;;;2.40;0.40;;;13.30;99.90;;;;;;5074809;28;20479;-64
2024/01/24 09:47:33;;;;;;;1.85;0.30;;;13.40;99.90;;;;;;5075014;28;20086;-64
2024/01/24 09:50:02;;;;;;;1.13;0.38;;;13.30;99.90;;;;;;5076136;28;20040;-65
2024/01/24 09:52:28;;;;;;;1.55;0.30;;;13.40;99.90;;;;;;5076519;28;20024;-65
2024/01/24 09:54:58;;;;;;;2.38;0.40;;;13.40;99.90;;;;;;5062379;28;20115;-65
2024/01/24 09:57:26;;;;;;;1.08;0.30;;;13.40;99.90;;;;;;5038447;28;20358;-65
2024/01/24 09:59:51;;;;;;;1.95;0.30;;;13.40;99.90;;;;;;5037603;28;20029;-64
2024/01/24 10:02:17;;;;;;;1.40;0.45;;;13.40;99.90;;;;;;5037833;28;20082;-65
2024/01/24 10:04:46;;;;;;;1.15;0.40;;;13.60;99.90;;;;;;5055632;28;20025;-64
2024/01/24 10:07:13;;;;;;;0.82;0.30;;;13.50;99.90;;;;;;5055630;28;20021;-65
2024/01/24 10:09:38;;;;;;;0.47;0.40;;;13.50;99.90;;;;;;5037411;28;20044;-64
2024/01/24 10:12:04;;;;;;;1.88;0.30;;;13.40;99.90;;;;;;5055511;28;20029;-65
2024/01/24 10:14:32;;;;;;;2.75;0.50;;;13.40;99.90;;;;;;5037543;28;20078;-64
2024/01/24 10:16:57;;;;;;;1.33;0.30;;;13.50;99.90;;;;;;5055604;28;20033;-65
2024/01/24 10:19:24;;;;;;;1.45;0.25;;;13.50;99.90;;;;;;5055319;28;20028;-65
2024/01/24 10:21:54;;;;;;;1.42;0.28;;;13.60;99.90;;;;;;5055332;28;20025;-65
2024/01/24 10:24:21;;;;;;;1.73;0.20;;;13.70;99.90;;;;;;5055374;28;20025;-65
2024/01/24 10:26:46;;;;;;;3.05;0.30;;;13.80;99.90;;;;;;5055458;28;20029;-65
2024/01/24 10:29:12;;;;;;;0.47;0.20;;;13.90;99.90;;;;;;5055234;28;20027;-65
2024/01/24 10:31:38;;;;;;;1.05;0.20;;;13.90;99.90;;;;;;5037834;28;20068;-65
2024/01/24 10:34:04;;;;;;;0.60;0.25;;;13.80;99.90;;;;;;5054799;28;20434;-65
2024/01/24 10:36:32;;;;;;;1.15;0.13;;;13.80;99.90;;;;;;5055037;28;20033;-65
2024/01/24 10:39:00;;;;;;;0.63;0.20;;;13.70;99.90;;;;;;5037062;28;20036;-65
2024/01/24 10:41:40;;;;;;;2.88;0.35;;;13.80;99.90;;;;;;5037064;28;20064;-65
2024/01/24 10:44:09;;;;;;;1.65;0.85;;;14.00;99.90;;;;;;5037669;28;20032;-65
2024/01/24 10:46:36;;;;;;;0.70;0.20;;;14.10;99.90;;;;;;5055628;28;20025;-65
2024/01/24 10:49:03;;;;;;;0.80;0.20;;;14.10;99.90;;;;;;5055398;28;20088;-65
2024/01/24 10:51:29;;;;;;;1.23;0.17;;;14.20;99.90;;;;;;5036913;28;20033;-65
2024/01/24 10:53:56;;;;;;;1.15;0.20;;;14.50;99.90;;;;;;5054468;28;20049;-65
2024/01/24 10:56:24;;;;;;;0.98;0.40;;;14.80;99.90;;;;;;5036755;28;20083;-65
2024/01/24 10:58:50;;;;;;;1.60;0.35;;;14.90;99.90;;;;;;5054573;28;20044;-65
2024/01/24 11:01:15;;;;;;;1.42;0.30;;;15.10;99.90;;;;;;5036722;28;20377;-65
2024/01/24 11:03:44;;;;;;;1.50;0.32;;;15.10;99.90;;;;;;5054680;28;20028;-65
2024/01/24 11:06:15;;;;;;;0.50;0.20;;;14.80;99.90;;;;;;5037858;28;20032;-65
2024/01/24 11:08:51;;;;;;;1.88;0.22;;;14.40;99.90;;;;;;5054720;28;20027;-65
2024/01/24 11:11:21;;;;;;;2.20;0.20;;;14.20;99.90;;;;;;5054060;28;20028;-65
2024/01/24 11:13:46;;;;;;;1.45;0.30;;;14.10;99.90;;;;;;5055062;28;20060;-65
2024/01/24 11:16:34;;;;;;;1.65;0.30;;;14.10;99.90;;;;;;5036489;28;20504;-66
2024/01/24 11:19:20;;;;;;;2.00;0.20;;;14.10;99.90;;;;;;5054193;28;20036;-65
2024/01/24 11:21:47;;;;;;;0.93;0.25;;;14.10;99.90;;;;;;5036349;28;20025;-65
2024/01/24 11:24:12;;;;;;;1.08;0.50;;;14.00;99.90;;;;;;5054206;28;20033;-65
2024/01/24 11:26:38;;;;;;;2.38;0.25;;;14.00;99.90;;;;;;5054191;28;20094;-65
2024/01/24 11:29:05;;;;;;;0.50;0.43;;;13.80;99.90;;;;;;5054358;28;20035;-65
2024/01/24 11:31:37;;;;;;;1.50;0.43;;;13.90;99.90;;;;;;5036186;28;20464;-65
2024/01/24 11:34:07;;;;;;;0.75;0.32;;;14.00;99.90;;;;;;5054087;28;20025;-65
2024/01/24 11:36:52;;;;;;;1.15;0.40;;;14.00;99.90;;;;;;5036132;28;20423;-65
2024/01/24 11:39:33;;;;;;;1.95;0.30;;;14.00;99.90;;;;;;5054071;28;20033;-65
2024/01/24 11:42:23;;;;;;;1.45;0.30;;;14.00;99.90;;;;;;5053967;28;20025;-65
2024/01/24 11:44:49;;;;;;;0.95;0.20;;;14.10;99.90;;;;;;5036009;28;20070;-64
2024/01/24 11:47:15;;;;;;;1.42;0.35;;;14.20;99.90;;;;;;5036022;28;20025;-65
2024/01/24 11:49:40;;;;;;;2.15;0.45;;;14.40;99.90;;;;;;5036197;28;20036;-65
2024/01/24 11:52:06;;;;;;;1.67;0.28;;;14.90;99.90;;;;;;5053847;28;20025;-65
2024/01/24 11:54:32;;;;;;;1.48;0.20;;;14.90;99.90;;;;;;5053802;28;20392;-65
2024/01/24 11:56:58;;;;;;;0.73;0.20;;;14.80;99.90;;;;;;5053756;28;20025;-65
2024/01/24 11:59:24;;;;;;;0.88;0.20;;;14.70;99.90;;;;;;5053830;28;20083;-65
2024/01/24 12:01:49;;;;;;;0.30;0.30;;;14.70;99.90;;;;;;5053382;28;20476;-64
2024/01/24 12:04:15;;;;;;;1.35;0.40;;;14.70;99.90;;;;;;5053991;28;20056;-65
2024/01/24 12:06:41;;;;;;;2.10;0.40;;;15.50;99.90;;;;;;5035832;28;20021;-65
2024/01/24 12:09:09;;;;;;;0.70;0.20;;;16.20;99.90;;;;;;5053576;28;20028;-64
2024/01/24 12:11:34;;;;;;;0.93;0.30;;;16.60;99.90;;;;;;5053584;28;20025;-65
2024/01/24 12:14:01;;;;;;;0.82;0.40;;;16.80;99.10;;;;;;5053858;28;20051;-65
2024/01/24 12:16:28;;;;;;;0.82;0.20;;;16.80;98.90;;;;;;5035710;28;20487;-65
2024/01/24 12:18:57;;;;;;;1.25;0.63;;;16.80;98.30;;;;;;5053451;28;20033;-65
2024/01/24 12:21:23;;;;;;;1.75;0.30;;;16.80;98.00;;;;;;5053749;28;20068;-65
2024/01/24 12:23:49;;;;;;;2.30;0.43;;;17.20;97.40;;;;;;5057955;28;20060;-65
2024/01/24 12:26:15;;;;;;;2.05;0.70;;;17.50;96.60;;;;;;5057475;28;20025;-65
2024/01/24 12:28:41;;;;;;;1.85;0.40;;;17.50;96.10;;;;;;5057094;28;20029;-65
2024/01/24 12:31:08;;;;;;;2.17;0.45;;;17.40;96.00;;;;;;5057302;28;20052;-65
2024/01/24 12:33:33;;;;;;;1.13;0.20;;;17.40;95.70;;;;;;5056915;28;20028;-65
2024/01/24 12:36:05;;;;;;;1.45;0.40;;;17.50;95.50;;;;;;5057274;28;20021;-65
2024/01/24 12:38:35;;;;;;;0.38;0.30;;;17.30;95.50;;;;;;5039041;28;20033;-65
2024/01/24 12:41:00;;;;;;;;;;;16.80;95.90;;;;;;5057548;28;20028;-65
2024/01/24 12:43:26;;;;;;;1.58;0.30;;;16.30;97.10;;;;;;5057448;28;19958;-65